Time;durP1;ratioP1;P1;durP2;ratioP2;P2;SDS_P1;SDS_P2;PMS_P1;PMS_P2;Temp;Humidity;BMP_temperature;BMP_pressure;BME280_temperature;BME280_humidity;BME280_pressure;Samples;Min_cycle;Max_cycle;Signal;HPM_P1;HPM_P2
2022/01/01 00:02:19;;;;;;;9.40;5.33;;;13.50;99.90;;;;;;5019453;28;20197;-67
2022/01/01 00:04:45;;;;;;;7.53;4.30;;;13.50;99.90;;;;;;5024435;28;20196;-74
2022/01/01 00:07:11;;;;;;;6.27;3.93;;;13.50;99.90;;;;;;5021875;28;20265;-69
2022/01/01 00:09:38;;;;;;;8.40;3.40;;;13.40;99.90;;;;;;5020225;28;20656;-63
2022/01/01 00:12:04;;;;;;;7.27;3.80;;;13.40;99.90;;;;;;5018710;28;20184;-63
2022/01/01 00:14:31;;;;;;;11.53;4.27;;;13.40;99.90;;;;;;5017506;28;20265;-70
2022/01/01 00:16:57;;;;;;;64.30;31.63;;;13.40;99.90;;;;;;5018652;28;20645;-71
2022/01/01 00:19:23;;;;;;;12.23;6.67;;;13.80;99.90;;;;;;5020278;28;20189;-73
2022/01/01 00:21:49;;;;;;;11.33;6.90;;;14.20;99.90;;;;;;5017564;28;20288;-75
2022/01/01 00:24:14;;;;;;;12.50;7.10;;;14.10;99.90;;;;;;5020734;28;20193;-70
2022/01/01 00:26:40;;;;;;;6.73;4.13;;;14.40;99.90;;;;;;5018621;28;20200;-74
2022/01/01 00:29:06;;;;;;;4.23;3.17;;;13.80;99.90;;;;;;5019478;28;20192;-71
2022/01/01 00:31:31;;;;;;;5.77;3.53;;;13.50;99.90;;;;;;5017633;28;20238;-71
2022/01/01 00:34:00;;;;;;;10.23;4.00;;;13.50;99.90;;;;;;5019947;28;20731;-70
2022/01/01 00:36:26;;;;;;;7.07;3.77;;;13.50;99.90;;;;;;5021523;28;20209;-67
2022/01/01 00:38:52;;;;;;;5.90;4.40;;;13.40;99.90;;;;;;5018439;28;20195;-71
2022/01/01 00:41:18;;;;;;;5.03;3.77;;;13.30;99.90;;;;;;5018462;28;20182;-69
2022/01/01 00:43:43;;;;;;;13.30;6.10;;;13.40;99.90;;;;;;5020008;28;20192;-73
2022/01/01 00:46:09;;;;;;;10.47;4.43;;;13.60;99.90;;;;;;5017491;28;20283;-78
2022/01/01 00:48:35;;;;;;;6.37;4.33;;;13.90;99.90;;;;;;5022172;28;20197;-68
2022/01/01 00:51:01;;;;;;;7.83;4.07;;;13.90;99.90;;;;;;5016363;28;20235;-68
2022/01/01 00:53:26;;;;;;;7.83;4.30;;;13.60;99.90;;;;;;5018321;28;20196;-67
2022/01/01 00:55:52;;;;;;;4.57;3.53;;;13.50;99.90;;;;;;5023763;28;20201;-68
2022/01/01 00:58:18;;;;;;;5.00;3.90;;;13.40;99.90;;;;;;5023657;28;20199;-67
2022/01/01 01:00:44;;;;;;;5.33;3.83;;;13.40;99.90;;;;;;5021140;28;20189;-67
2022/01/01 01:03:10;;;;;;;6.23;3.83;;;13.40;99.90;;;;;;5023814;28;20281;-67
2022/01/01 01:05:39;;;;;;;6.53;3.47;;;13.50;99.90;;;;;;5022522;28;21089;-68
2022/01/01 01:08:06;;;;;;;5.27;3.70;;;13.40;99.90;;;;;;5019689;28;20185;-67
2022/01/01 01:10:32;;;;;;;4.63;3.73;;;13.40;99.90;;;;;;5022455;28;20762;-67
2022/01/01 01:12:58;;;;;;;21.30;8.17;;;13.40;99.90;;;;;;5024658;28;20176;-67
2022/01/01 01:15:24;;;;;;;16.90;7.57;;;13.50;99.90;;;;;;5022756;28;20552;-68
2022/01/01 01:17:52;;;;;;;7.30;4.77;;;13.50;99.90;;;;;;5021743;28;20259;-68
2022/01/01 01:20:19;;;;;;;5.60;3.80;;;13.40;99.90;;;;;;5027216;28;20275;-66
2022/01/01 01:22:45;;;;;;;4.63;4.00;;;13.40;99.90;;;;;;5023237;28;20311;-67
2022/01/01 01:25:12;;;;;;;8.33;4.03;;;13.40;99.90;;;;;;5024580;28;20193;-71
2022/01/01 01:27:37;;;;;;;5.97;3.87;;;13.40;99.90;;;;;;5024869;28;20189;-66
2022/01/01 01:30:05;;;;;;;5.30;3.40;;;13.40;99.90;;;;;;5034584;28;20199;-66
2022/01/01 01:32:32;;;;;;;6.87;3.80;;;13.40;99.90;;;;;;5027358;28;20295;-68
2022/01/01 01:34:57;;;;;;;3.73;3.20;;;13.40;99.90;;;;;;5015263;28;20332;-70
2022/01/01 01:37:23;;;;;;;5.07;3.20;;;13.40;99.90;;;;;;5024737;28;20181;-66
2022/01/01 01:39:49;;;;;;;5.63;3.30;;;13.40;99.90;;;;;;5018687;28;20188;-68
2022/01/01 01:42:15;;;;;;;4.83;3.33;;;13.40;99.90;;;;;;5020128;28;20227;-66
2022/01/01 01:44:47;;;;;;;4.50;3.30;;;13.50;99.90;;;;;;5022391;28;20300;-68
2022/01/01 01:47:17;;;;;;;3.93;3.07;;;13.50;99.90;;;;;;5021494;28;20284;-75
2022/01/01 01:49:44;;;;;;;8.17;3.70;;;13.50;99.90;;;;;;5021147;28;20292;-68
2022/01/01 01:52:11;;;;;;;5.00;3.00;;;13.40;99.90;;;;;;5020665;28;20174;-70
2022/01/01 01:54:37;;;;;;;4.30;3.30;;;13.50;99.90;;;;;;5011195;28;20291;-68
2022/01/01 01:57:03;;;;;;;9.33;4.10;;;13.40;99.90;;;;;;5020637;28;20288;-69
2022/01/01 01:59:29;;;;;;;6.57;3.97;;;13.40;99.90;;;;;;5022966;28;20185;-68
2022/01/01 02:01:55;;;;;;;4.40;3.40;;;13.40;99.90;;;;;;5019630;28;20236;-69
2022/01/01 02:04:21;;;;;;;5.30;2.90;;;13.40;99.90;;;;;;5016262;28;20196;-66
2022/01/01 02:06:47;;;;;;;6.03;3.90;;;13.40;99.90;;;;;;5014475;28;20609;-69
2022/01/01 02:09:13;;;;;;;4.83;3.10;;;13.40;99.90;;;;;;5022121;28;20189;-68
2022/01/01 02:11:39;;;;;;;5.60;3.43;;;13.40;99.90;;;;;;5024453;28;20287;-67
2022/01/01 02:14:17;;;;;;;5.23;3.50;;;13.40;99.90;;;;;;5019098;28;21886;-68
2022/01/01 02:17:07;;;;;;;5.63;3.23;;;13.40;99.90;;;;;;5016358;28;20184;-66
2022/01/01 02:19:47;;;;;;;6.80;4.17;;;13.40;99.90;;;;;;5017355;28;20177;-68
2022/01/01 02:22:13;;;;;;;6.87;3.57;;;13.40;99.90;;;;;;5017646;28;20185;-72
2022/01/01 02:24:38;;;;;;;6.23;4.00;;;13.40;99.90;;;;;;5018514;28;20201;-68
2022/01/01 02:27:04;;;;;;;8.60;4.10;;;13.50;99.90;;;;;;5015912;28;20197;-66
2022/01/01 02:29:29;;;;;;;4.80;3.33;;;13.50;99.90;;;;;;5018103;28;20203;-68
2022/01/01 02:31:55;;;;;;;6.17;3.80;;;13.40;99.90;;;;;;5017708;28;20193;-68
2022/01/01 02:34:21;;;;;;;5.43;3.57;;;13.40;99.90;;;;;;5017720;28;20251;-68
2022/01/01 02:36:46;;;;;;;4.40;3.50;;;13.40;99.90;;;;;;5015673;28;20209;-71
2022/01/01 02:39:13;;;;;;;7.30;3.87;;;13.40;99.90;;;;;;5011577;28;20195;-71
2022/01/01 02:41:39;;;;;;;6.57;3.83;;;13.40;99.90;;;;;;5014853;28;20185;-69
2022/01/01 02:44:06;;;;;;;5.73;3.67;;;13.40;99.90;;;;;;5018709;28;20197;-70
2022/01/01 02:46:33;;;;;;;5.63;3.70;;;13.40;99.90;;;;;;5018734;28;20195;-69
2022/01/01 02:48:59;;;;;;;5.17;3.53;;;13.40;99.90;;;;;;5018521;28;20278;-72
2022/01/01 02:51:25;;;;;;;5.87;3.40;;;13.30;99.90;;;;;;5018974;28;20196;-68
2022/01/01 02:53:50;;;;;;;5.07;3.30;;;13.30;99.90;;;;;;5017263;28;20201;-67
2022/01/01 02:56:16;;;;;;;6.50;3.40;;;13.30;99.90;;;;;;5020687;28;20208;-68
2022/01/01 02:58:42;;;;;;;6.70;3.57;;;13.40;99.90;;;;;;5014647;28;20197;-70
2022/01/01 03:01:09;;;;;;;4.53;3.63;;;13.30;99.90;;;;;;5015842;28;20230;-68
2022/01/01 03:03:34;;;;;;;4.73;3.40;;;13.40;99.90;;;;;;5019232;28;20192;-66
2022/01/01 03:06:00;;;;;;;5.33;3.57;;;13.40;99.90;;;;;;5018112;28;20193;-70
2022/01/01 03:08:26;;;;;;;4.20;3.33;;;13.30;99.90;;;;;;5018863;28;20301;-68
2022/01/01 03:10:51;;;;;;;4.77;3.37;;;13.30;99.90;;;;;;5018157;28;20185;-66
2022/01/01 03:13:18;;;;;;;5.37;3.63;;;13.30;99.90;;;;;;5018836;28;20181;-66
2022/01/01 03:15:43;;;;;;;6.67;3.63;;;13.40;99.90;;;;;;5017727;28;20209;-67
2022/01/01 03:18:09;;;;;;;6.13;3.70;;;13.30;99.90;;;;;;5017931;28;20287;-69
2022/01/01 03:20:36;;;;;;;5.10;3.60;;;13.30;99.90;;;;;;5015426;28;20234;-68
2022/01/01 03:23:03;;;;;;;4.50;3.57;;;13.30;99.90;;;;;;5015772;28;20186;-68
2022/01/01 03:25:29;;;;;;;5.33;3.87;;;13.30;99.90;;;;;;5017349;28;20217;-66
2022/01/01 03:27:54;;;;;;;5.50;3.70;;;13.30;99.90;;;;;;5017541;28;20219;-67
2022/01/01 03:30:20;;;;;;;4.83;3.50;;;13.30;99.90;;;;;;5018043;28;20189;-74
2022/01/01 03:32:45;;;;;;;4.60;3.33;;;13.30;99.90;;;;;;5016371;28;20239;-69
2022/01/01 03:35:11;;;;;;;5.43;3.23;;;13.30;99.90;;;;;;5019390;28;20204;-69
2022/01/01 03:37:37;;;;;;;6.47;3.33;;;13.30;99.90;;;;;;5018744;28;20672;-71
2022/01/01 03:40:04;;;;;;;5.00;3.63;;;13.40;99.90;;;;;;5019150;28;20260;-68
2022/01/01 03:42:30;;;;;;;6.23;3.93;;;13.30;99.90;;;;;;5022058;28;20664;-67
2022/01/01 03:44:56;;;;;;;6.67;3.70;;;13.20;99.90;;;;;;5017124;28;20720;-69
2022/01/01 03:47:21;;;;;;;7.27;3.30;;;13.20;99.90;;;;;;5015733;28;20263;-68
2022/01/01 03:49:47;;;;;;;4.07;3.27;;;13.20;99.90;;;;;;5016381;28;20229;-71
2022/01/01 03:52:13;;;;;;;5.40;3.50;;;13.20;99.90;;;;;;5018428;28;20377;-67
2022/01/01 03:54:38;;;;;;;4.40;3.30;;;13.20;99.90;;;;;;5016345;28;20200;-68
2022/01/01 03:57:04;;;;;;;5.47;3.20;;;13.20;99.90;;;;;;5019342;28;20189;-66
2022/01/01 03:59:30;;;;;;;5.10;3.40;;;13.20;99.90;;;;;;5023399;28;20185;-69
2022/01/01 04:01:55;;;;;;;4.57;3.27;;;13.30;99.90;;;;;;5024007;28;20216;-68
2022/01/01 04:04:25;;;;;;;6.10;3.20;;;13.40;99.90;;;;;;5023869;28;20568;-73
2022/01/01 04:06:51;;;;;;;5.50;3.50;;;13.30;99.90;;;;;;5022781;28;20189;-73
2022/01/01 04:09:17;;;;;;;4.40;3.10;;;13.20;99.90;;;;;;5021702;28;20173;-72
2022/01/01 04:11:42;;;;;;;5.07;3.20;;;13.30;99.90;;;;;;5020699;28;20234;-70
2022/01/01 04:14:14;;;;;;;4.83;3.10;;;13.20;99.90;;;;;;5020494;28;20236;-68
2022/01/01 04:16:40;;;;;;;6.50;3.00;;;13.10;99.90;;;;;;5022912;28;20216;-70
2022/01/01 04:19:05;;;;;;;4.13;3.17;;;13.20;99.90;;;;;;5022851;28;20184;-67
2022/01/01 04:21:31;;;;;;;5.30;2.80;;;13.20;99.90;;;;;;5030862;28;20205;-68
2022/01/01 04:23:57;;;;;;;4.33;2.97;;;13.20;99.90;;;;;;5031808;28;20188;-67
2022/01/01 04:26:24;;;;;;;3.87;2.73;;;13.20;99.90;;;;;;5021026;28;20189;-65
2022/01/01 04:28:50;;;;;;;4.20;2.63;;;13.20;99.90;;;;;;5022697;28;20287;-65
2022/01/01 04:31:16;;;;;;;3.37;2.47;;;13.20;99.90;;;;;;5021159;28;20299;-66
2022/01/01 04:33:42;;;;;;;4.50;3.10;;;13.20;99.90;;;;;;5022809;28;20399;-68
2022/01/01 04:36:08;;;;;;;5.03;2.60;;;13.10;99.90;;;;;;5023832;28;20244;-68
2022/01/01 04:38:38;;;;;;;3.90;2.90;;;13.20;99.90;;;;;;5026433;28;20221;-68
2022/01/01 04:41:09;;;;;;;3.97;2.73;;;13.20;99.90;;;;;;5020095;28;20181;-68
2022/01/01 04:43:35;;;;;;;6.17;3.17;;;13.10;99.90;;;;;;5019778;28;20213;-66
2022/01/01 04:46:01;;;;;;;5.00;2.90;;;13.00;99.90;;;;;;5020467;28;20640;-67
2022/01/01 04:48:27;;;;;;;3.20;2.53;;;13.00;99.90;;;;;;5019678;28;20196;-68
2022/01/01 04:50:53;;;;;;;3.67;2.47;;;13.00;99.90;;;;;;5018707;28;20185;-68
2022/01/01 04:53:19;;;;;;;4.90;2.90;;;13.00;99.90;;;;;;5021471;28;20278;-67
2022/01/01 04:55:48;;;;;;;3.97;3.00;;;13.00;99.90;;;;;;5027702;28;20236;-72
2022/01/01 04:58:15;;;;;;;3.80;2.33;;;13.00;99.90;;;;;;5020907;28;20198;-67
2022/01/01 05:00:41;;;;;;;6.23;2.70;;;13.00;99.90;;;;;;5031975;28;20196;-73
2022/01/01 05:03:07;;;;;;;3.30;2.53;;;13.00;99.90;;;;;;5026356;28;20261;-69
2022/01/01 05:05:33;;;;;;;3.90;2.57;;;13.00;99.90;;;;;;5020087;28;20294;-67
2022/01/01 05:07:58;;;;;;;4.40;2.60;;;13.00;99.90;;;;;;5016717;28;20940;-67
2022/01/01 05:10:24;;;;;;;3.07;2.40;;;13.00;99.90;;;;;;5019074;28;20186;-66
2022/01/01 05:12:53;;;;;;;5.20;2.70;;;13.00;99.90;;;;;;5019529;28;20200;-67
2022/01/01 05:15:19;;;;;;;4.13;2.50;;;12.90;99.90;;;;;;5021225;28;20259;-73
2022/01/01 05:17:45;;;;;;;4.33;2.70;;;13.00;99.90;;;;;;5018185;28;20279;-66
2022/01/01 05:20:11;;;;;;;3.10;2.37;;;13.00;99.90;;;;;;5018255;28;20185;-69
2022/01/01 05:22:36;;;;;;;3.87;2.73;;;13.00;99.90;;;;;;5020771;28;20308;-67
2022/01/01 05:25:03;;;;;;;3.77;2.67;;;13.00;99.90;;;;;;5018175;28;20193;-71
2022/01/01 05:27:35;;;;;;;3.43;2.67;;;13.00;99.90;;;;;;5018717;28;20189;-73
2022/01/01 05:30:01;;;;;;;3.50;2.47;;;13.00;99.90;;;;;;5020348;28;20284;-67
2022/01/01 05:32:27;;;;;;;4.30;2.87;;;13.00;99.90;;;;;;5018274;28;20243;-68
2022/01/01 05:34:52;;;;;;;4.20;2.57;;;13.00;99.90;;;;;;5023878;28;20213;-68
2022/01/01 05:37:18;;;;;;;5.53;2.97;;;13.00;99.90;;;;;;5020313;28;20173;-67
2022/01/01 05:39:44;;;;;;;4.27;2.37;;;12.90;99.90;;;;;;5020530;28;20200;-68
2022/01/01 05:42:09;;;;;;;4.40;2.33;;;13.00;99.90;;;;;;5019159;28;20181;-67
2022/01/01 05:44:35;;;;;;;3.57;2.17;;;13.00;99.90;;;;;;5020822;28;20246;-69
2022/01/01 05:47:01;;;;;;;3.03;2.50;;;13.00;99.90;;;;;;5019056;28;20611;-72
2022/01/01 05:49:26;;;;;;;7.00;2.90;;;13.00;99.90;;;;;;5023609;28;20189;-72
2022/01/01 05:51:52;;;;;;;4.40;2.47;;;12.90;99.90;;;;;;5020458;28;20181;-69
2022/01/01 05:54:18;;;;;;;4.10;2.83;;;13.00;99.90;;;;;;5019027;28;20641;-68
2022/01/01 05:56:43;;;;;;;3.73;2.57;;;13.00;99.90;;;;;;5034299;28;20241;-67
2022/01/01 05:59:09;;;;;;;4.30;3.13;;;13.00;99.90;;;;;;5017139;28;20189;-69
2022/01/01 06:01:34;;;;;;;3.33;2.57;;;13.00;99.90;;;;;;5018831;28;20718;-67
2022/01/01 06:04:00;;;;;;;3.33;2.60;;;13.00;99.90;;;;;;5019496;28;20181;-67
2022/01/01 06:06:26;;;;;;;5.50;2.70;;;12.90;99.90;;;;;;5018337;28;20197;-69
2022/01/01 06:08:51;;;;;;;3.70;2.93;;;13.00;99.90;;;;;;5016431;28;20205;-69
2022/01/01 06:11:17;;;;;;;4.03;2.50;;;13.00;99.90;;;;;;5017679;28;20193;-71
2022/01/01 06:13:42;;;;;;;2.80;2.33;;;13.00;99.90;;;;;;5017920;28;20188;-68
2022/01/01 06:16:08;;;;;;;3.57;2.40;;;13.00;99.90;;;;;;5016626;28;20255;-66
2022/01/01 06:18:34;;;;;;;7.70;2.60;;;13.00;99.90;;;;;;5018906;28;20184;-67
2022/01/01 06:21:02;;;;;;;2.80;2.30;;;12.90;99.90;;;;;;5013853;28;20256;-69
2022/01/01 06:23:27;;;;;;;3.17;2.20;;;12.90;99.90;;;;;;5023101;28;20552;-67
2022/01/01 06:25:53;;;;;;;5.77;2.70;;;13.00;99.90;;;;;;5017332;28;20234;-66
2022/01/01 06:28:19;;;;;;;3.10;2.37;;;13.00;99.90;;;;;;5019076;28;20204;-66
2022/01/01 06:30:44;;;;;;;2.53;2.33;;;13.00;99.90;;;;;;5020449;28;20267;-67
2022/01/01 06:33:16;;;;;;;3.53;2.10;;;13.00;99.90;;;;;;5019632;28;20292;-68
2022/01/01 06:35:43;;;;;;;4.33;2.20;;;13.00;99.90;;;;;;5016638;28;20201;-68
2022/01/01 06:38:09;;;;;;;3.70;2.40;;;13.00;99.90;;;;;;5019047;28;20196;-71
2022/01/01 06:40:36;;;;;;;2.93;2.33;;;12.90;99.90;;;;;;5021233;28;20239;-66
2022/01/01 06:43:02;;;;;;;6.17;2.53;;;13.00;99.90;;;;;;5016874;28;20185;-70
2022/01/01 06:45:28;;;;;;;3.23;2.20;;;13.00;99.90;;;;;;5021246;28;20303;-68
2022/01/01 06:47:54;;;;;;;4.03;2.30;;;13.00;99.90;;;;;;5021920;28;20268;-69
2022/01/01 06:50:19;;;;;;;4.57;2.63;;;13.00;99.90;;;;;;5022693;28;20196;-71
2022/01/01 06:52:46;;;;;;;5.40;2.60;;;13.00;99.90;;;;;;5019034;28;20193;-68
2022/01/01 06:55:12;;;;;;;3.03;2.33;;;13.10;99.90;;;;;;5019932;28;20216;-66
2022/01/01 06:57:39;;;;;;;3.23;1.97;;;13.00;99.90;;;;;;5019546;28;20198;-70
2022/01/01 07:00:06;;;;;;;2.53;2.27;;;13.00;99.90;;;;;;5020137;28;20199;-66
2022/01/01 07:02:36;;;;;;;2.70;2.20;;;13.00;99.90;;;;;;5018130;28;20897;-69
2022/01/01 07:05:02;;;;;;;4.17;1.90;;;13.10;99.90;;;;;;5018177;28;21055;-72
2022/01/01 07:07:27;;;;;;;2.47;2.07;;;13.10;99.90;;;;;;5017520;28;20184;-67
2022/01/01 07:09:53;;;;;;;3.00;2.00;;;13.10;99.90;;;;;;5017067;28;20652;-68
2022/01/01 07:12:19;;;;;;;2.87;2.07;;;13.10;99.90;;;;;;5019103;28;20216;-67
2022/01/01 07:14:44;;;;;;;3.47;2.20;;;13.10;99.90;;;;;;5024208;28;20242;-67
2022/01/01 07:17:10;;;;;;;5.03;2.30;;;13.10;99.90;;;;;;5018635;28;20197;-69
2022/01/01 07:19:35;;;;;;;3.97;1.97;;;13.00;99.90;;;;;;5020787;28;20336;-67
2022/01/01 07:22:01;;;;;;;2.90;1.97;;;13.00;99.90;;;;;;5020232;28;20547;-68
2022/01/01 07:24:27;;;;;;;3.57;2.10;;;13.10;99.90;;;;;;5015767;28;20208;-74
2022/01/01 07:26:52;;;;;;;4.27;2.00;;;13.10;99.90;;;;;;5016986;28;20205;-67
2022/01/01 07:29:18;;;;;;;2.90;1.87;;;13.10;99.90;;;;;;5018570;28;20217;-68
2022/01/01 07:31:43;;;;;;;5.37;2.20;;;13.10;99.90;;;;;;5022401;28;20699;-67
2022/01/01 07:34:09;;;;;;;2.97;1.77;;;13.10;99.90;;;;;;5018022;28;20241;-69
2022/01/01 07:36:35;;;;;;;2.30;1.60;;;13.10;99.90;;;;;;5023445;28;20247;-69
2022/01/01 07:39:00;;;;;;;2.03;1.47;;;13.20;99.90;;;;;;5026951;28;20276;-68
2022/01/01 07:41:26;;;;;;;3.20;1.80;;;13.10;99.90;;;;;;5027693;28;20446;-70
2022/01/01 07:43:51;;;;;;;4.37;1.63;;;13.10;99.90;;;;;;5021555;28;20208;-67
2022/01/01 07:46:17;;;;;;;1.60;1.43;;;13.20;99.90;;;;;;5017049;28;20185;-66
2022/01/01 07:48:43;;;;;;;3.33;2.00;;;13.20;99.90;;;;;;5017201;28;20180;-67
2022/01/01 07:51:08;;;;;;;2.97;2.00;;;13.20;99.90;;;;;;5017030;28;20200;-69
2022/01/01 07:53:34;;;;;;;4.50;2.00;;;13.20;99.90;;;;;;5022529;28;21234;-67
2022/01/01 07:56:00;;;;;;;5.10;1.90;;;13.20;99.90;;;;;;5021208;28;20213;-70
2022/01/01 07:58:25;;;;;;;1.97;1.70;;;13.20;99.90;;;;;;5027332;28;20223;-67
2022/01/01 08:00:51;;;;;;;4.40;2.30;;;13.20;99.90;;;;;;5022660;28;20189;-70
2022/01/01 08:03:16;;;;;;;6.13;1.70;;;13.30;99.90;;;;;;5018552;28;20188;-68
2022/01/01 08:05:42;;;;;;;2.47;1.80;;;13.20;99.90;;;;;;5019894;28;20192;-69
2022/01/01 08:08:08;;;;;;;3.97;2.10;;;13.30;99.90;;;;;;5027900;28;20607;-66
2022/01/01 08:10:34;;;;;;;2.10;1.90;;;13.30;99.90;;;;;;5020729;28;20268;-71
2022/01/01 08:13:00;;;;;;;2.33;2.03;;;13.30;99.90;;;;;;5022208;28;20667;-68
2022/01/01 08:15:26;;;;;;;2.97;2.63;;;13.30;99.90;;;;;;5019462;28;20204;-66
2022/01/01 08:17:52;;;;;;;2.83;1.90;;;13.30;99.90;;;;;;5020115;28;20189;-68
2022/01/01 08:20:18;;;;;;;3.20;1.90;;;13.30;99.90;;;;;;5018289;28;20645;-65
2022/01/01 08:22:43;;;;;;;2.90;1.80;;;13.30;99.90;;;;;;5021122;28;20290;-67
2022/01/01 08:25:09;;;;;;;2.37;1.90;;;13.30;99.90;;;;;;5024015;28;20293;-68
2022/01/01 08:27:35;;;;;;;3.30;1.90;;;13.40;99.90;;;;;;5021997;28;20215;-68
2022/01/01 08:30:01;;;;;;;2.67;1.70;;;13.30;99.90;;;;;;5024675;28;20247;-67
2022/01/01 08:32:26;;;;;;;3.60;1.97;;;13.30;99.90;;;;;;5016436;28;20292;-70
2022/01/01 08:34:53;;;;;;;2.30;1.77;;;13.40;99.90;;;;;;5021825;28;20724;-69
2022/01/01 08:37:19;;;;;;;3.67;1.70;;;13.40;99.90;;;;;;5017005;28;20197;-67
2022/01/01 08:39:44;;;;;;;2.73;1.97;;;13.30;99.90;;;;;;5022117;28;20200;-68
2022/01/01 08:42:10;;;;;;;3.23;2.13;;;13.30;99.90;;;;;;5025179;28;21092;-70
2022/01/01 08:44:36;;;;;;;3.17;1.90;;;13.40;99.90;;;;;;5029476;28;20654;-68
2022/01/01 08:47:01;;;;;;;2.97;1.90;;;13.40;99.90;;;;;;5031802;28;20323;-69
2022/01/01 08:49:27;;;;;;;3.80;1.90;;;13.40;99.90;;;;;;5029707;28;20613;-70
2022/01/01 08:51:55;;;;;;;4.00;2.10;;;13.50;99.90;;;;;;5032300;28;20185;-70
2022/01/01 08:54:21;;;;;;;3.93;1.87;;;13.40;99.90;;;;;;5033026;28;20212;-68
2022/01/01 08:56:46;;;;;;;4.37;2.30;;;13.40;99.90;;;;;;5038356;28;20224;-68
2022/01/01 08:59:12;;;;;;;2.70;2.07;;;13.40;99.90;;;;;;5023537;28;20203;-70
2022/01/01 09:01:38;;;;;;;5.57;2.07;;;13.40;99.90;;;;;;5021153;28;20204;-68
2022/01/01 09:04:05;;;;;;;3.93;2.10;;;13.40;99.90;;;;;;5024156;28;20536;-68
2022/01/01 09:06:31;;;;;;;3.73;1.93;;;13.40;99.90;;;;;;5025656;28;20236;-68
2022/01/01 09:08:56;;;;;;;2.67;1.63;;;13.40;99.90;;;;;;5024112;28;20207;-67
2022/01/01 09:11:23;;;;;;;3.13;1.90;;;13.40;99.90;;;;;;5022468;28;20189;-69
2022/01/01 09:13:48;;;;;;;2.63;1.60;;;13.40;99.90;;;;;;5023048;28;20196;-67
2022/01/01 09:16:16;;;;;;;2.00;1.53;;;13.40;99.90;;;;;;5024864;28;20193;-68
2022/01/01 09:18:43;;;;;;;3.07;2.10;;;13.50;99.90;;;;;;5024844;28;20185;-68
2022/01/01 09:21:10;;;;;;;4.13;1.70;;;13.50;99.90;;;;;;5040802;28;20265;-66
2022/01/01 09:23:36;;;;;;;3.23;2.07;;;13.40;99.90;;;;;;5028212;28;20192;-67
2022/01/01 09:26:02;;;;;;;1.90;1.47;;;13.50;99.90;;;;;;5024306;28;20224;-69
2022/01/01 09:28:29;;;;;;;2.67;1.57;;;13.50;99.90;;;;;;5028172;28;20194;-67
2022/01/01 09:30:56;;;;;;;3.07;1.70;;;13.50;99.90;;;;;;5025706;28;20196;-67
2022/01/01 09:33:23;;;;;;;3.53;1.87;;;13.50;99.90;;;;;;5025254;28;20241;-67
2022/01/01 09:35:49;;;;;;;3.37;1.77;;;13.60;99.90;;;;;;5023889;28;20661;-69
2022/01/01 09:38:14;;;;;;;2.23;1.80;;;13.50;99.90;;;;;;5023639;28;20185;-68
2022/01/01 09:40:40;;;;;;;2.63;1.57;;;13.50;99.90;;;;;;5023256;28;20193;-65
2022/01/01 09:43:09;;;;;;;4.63;1.60;;;13.60;99.90;;;;;;5023733;28;20189;-67
2022/01/01 09:45:35;;;;;;;2.23;1.60;;;13.60;99.90;;;;;;5022667;28;20193;-66
2022/01/01 09:48:03;;;;;;;2.03;1.83;;;13.70;99.90;;;;;;5023509;28;20184;-67
2022/01/01 09:50:29;;;;;;;2.40;1.57;;;13.60;99.90;;;;;;5019300;28;20193;-68
2022/01/01 09:52:55;;;;;;;2.30;1.60;;;13.60;99.90;;;;;;5021637;28;20173;-69
2022/01/01 09:55:21;;;;;;;2.40;1.70;;;13.60;99.90;;;;;;5021803;28;21444;-68
2022/01/01 09:57:48;;;;;;;4.00;1.67;;;13.60;99.90;;;;;;5022033;28;20660;-68
2022/01/01 10:00:14;;;;;;;3.30;1.70;;;13.60;99.90;;;;;;5023640;28;20655;-67
2022/01/01 10:02:39;;;;;;;5.63;1.93;;;13.60;99.90;;;;;;5024099;28;20207;-69
2022/01/01 10:05:06;;;;;;;6.13;1.93;;;13.60;99.90;;;;;;5027701;28;20197;-68
2022/01/01 10:07:32;;;;;;;2.87;1.60;;;13.60;99.90;;;;;;5026279;28;20250;-66
2022/01/01 10:10:15;;;;;;;2.47;1.80;;;13.60;99.90;;;;;;5020233;28;20193;-67
2022/01/01 10:12:43;;;;;;;2.80;1.47;;;13.70;99.90;;;;;;5021706;28;20181;-69
2022/01/01 10:15:09;;;;;;;2.40;1.60;;;13.60;99.90;;;;;;5015116;28;20208;-72
2022/01/01 10:17:35;;;;;;;3.00;1.77;;;13.70;99.90;;;;;;5019198;28;20200;-67
2022/01/01 10:20:02;;;;;;;4.60;1.60;;;13.70;99.90;;;;;;5020462;28;20197;-67
2022/01/01 10:22:28;;;;;;;2.03;1.57;;;13.70;99.90;;;;;;5016703;28;20200;-68
2022/01/01 10:27:54;;;;;;;4.03;1.80;;;13.70;99.90;;;;;;5024373;28;20647;-67
2022/01/01 10:30:40;;;;;;;3.23;1.83;;;13.70;99.90;;;;;;5021242;28;20207;-70
2022/01/01 10:33:09;;;;;;;2.10;1.83;;;13.70;99.90;;;;;;5019821;28;20248;-68
2022/01/01 10:35:49;;;;;;;2.63;1.93;;;13.70;99.90;;;;;;5020339;28;20212;-67
2022/01/01 10:38:28;;;;;;;2.23;1.77;;;13.70;99.90;;;;;;5018469;28;20277;-69
2022/01/01 10:41:06;;;;;;;3.33;1.87;;;13.70;99.90;;;;;;5018212;28;20917;-68
2022/01/01 10:43:39;;;;;;;2.20;1.60;;;13.70;99.90;;;;;;5015861;28;20188;-69
2022/01/01 10:46:09;;;;;;;2.87;1.67;;;13.80;99.90;;;;;;5014732;28;20243;-69
2022/01/01 10:51:07;;;;;;;2.97;2.07;;;13.80;99.90;;;;;;5016070;28;20670;-68
2022/01/01 10:53:34;;;;;;;3.37;2.10;;;13.70;99.90;;;;;;5017949;28;20184;-70
2022/01/01 10:56:34;;;;;;;3.80;2.03;;;13.70;99.90;;;;;;5016829;28;20653;-70
2022/01/01 10:59:01;;;;;;;3.07;1.83;;;13.70;99.90;;;;;;5020238;28;20189;-69
2022/01/01 11:01:27;;;;;;;3.70;2.27;;;13.60;99.90;;;;;;5019015;28;20185;-69
2022/01/01 11:03:54;;;;;;;5.17;2.07;;;13.70;99.90;;;;;;5017671;28;20196;-73
2022/01/01 11:06:21;;;;;;;4.63;2.10;;;13.70;99.90;;;;;;5017789;28;20278;-69
2022/01/01 11:08:47;;;;;;;3.50;2.20;;;13.80;99.90;;;;;;5019292;28;25567;-68
2022/01/01 11:11:15;;;;;;;4.63;2.00;;;13.70;99.90;;;;;;5020864;28;20667;-70
2022/01/01 11:13:42;;;;;;;2.50;1.73;;;13.80;99.90;;;;;;5017927;28;20190;-68
2022/01/01 11:16:09;;;;;;;2.80;2.10;;;13.80;99.90;;;;;;5022375;28;20679;-67
2022/01/01 11:18:36;;;;;;;3.67;2.00;;;13.80;99.90;;;;;;5024772;28;20304;-67
2022/01/01 11:21:04;;;;;;;6.83;1.90;;;13.80;99.90;;;;;;5026580;28;20726;-68
2022/01/01 11:23:31;;;;;;;4.63;2.23;;;13.80;99.90;;;;;;5022267;28;20711;-68
2022/01/01 11:25:57;;;;;;;4.30;2.10;;;13.80;99.90;;;;;;5022856;28;20593;-67
2022/01/01 11:28:23;;;;;;;3.60;2.00;;;13.80;99.90;;;;;;5023902;28;20188;-68
2022/01/01 11:31:10;;;;;;;4.40;2.30;;;13.80;99.90;;;;;;5020945;28;20783;-69
2022/01/01 11:33:44;;;;;;;4.53;1.97;;;13.80;99.90;;;;;;5023590;28;20352;-67
2022/01/01 11:36:22;;;;;;;4.47;2.10;;;13.80;99.90;;;;;;5018553;28;20204;-69
2022/01/01 11:38:48;;;;;;;3.90;1.90;;;13.80;99.90;;;;;;5022412;28;20235;-70
2022/01/01 11:41:17;;;;;;;5.10;2.17;;;13.80;99.90;;;;;;5019189;28;20193;-71
2022/01/01 11:43:53;;;;;;;6.00;2.27;;;13.80;99.90;;;;;;5021240;28;20625;-70
2022/01/01 11:46:25;;;;;;;5.37;1.80;;;13.80;99.90;;;;;;5018764;28;20195;-70
2022/01/01 11:48:56;;;;;;;3.50;1.70;;;13.80;99.90;;;;;;5019293;28;20652;-69
2022/01/01 11:51:23;;;;;;;8.77;2.30;;;13.70;99.90;;;;;;5021194;28;20187;-68
2022/01/01 11:54:24;;;;;;;3.60;1.90;;;13.80;99.90;;;;;;5018266;28;20267;-75
2022/01/01 11:56:50;;;;;;;3.60;2.53;;;13.80;99.90;;;;;;5020716;28;20212;-69
2022/01/01 11:59:30;;;;;;;5.50;2.30;;;13.70;99.90;;;;;;5021027;28;20197;-69
2022/01/01 12:02:02;;;;;;;3.20;2.33;;;13.80;99.90;;;;;;5018052;28;20866;-67
2022/01/01 12:04:33;;;;;;;6.03;2.50;;;13.80;99.90;;;;;;5020034;28;20184;-70
2022/01/01 12:07:05;;;;;;;2.83;2.07;;;13.80;99.90;;;;;;5023939;28;20696;-68
2022/01/01 12:09:46;;;;;;;4.93;2.10;;;13.80;99.90;;;;;;5025216;28;20282;-67
2022/01/01 12:12:13;;;;;;;4.57;2.37;;;13.80;99.90;;;;;;5024961;28;20200;-68
2022/01/01 12:14:40;;;;;;;3.83;2.07;;;13.80;99.90;;;;;;5025129;28;20220;-68
2022/01/01 12:17:06;;;;;;;5.13;2.40;;;13.80;99.90;;;;;;5024569;28;20556;-69
2022/01/01 12:19:36;;;;;;;5.17;2.10;;;13.80;99.90;;;;;;5023862;28;20173;-67
2022/01/01 12:22:08;;;;;;;6.37;2.53;;;13.80;99.90;;;;;;5017663;28;20181;-71
2022/01/01 12:24:35;;;;;;;4.83;2.50;;;13.80;99.90;;;;;;5023191;28;20204;-69
2022/01/01 12:27:10;;;;;;;4.13;2.00;;;13.80;99.90;;;;;;5018381;28;20195;-68
2022/01/01 12:29:35;;;;;;;6.47;2.10;;;13.70;99.90;;;;;;5022282;28;20716;-68
2022/01/01 12:32:02;;;;;;;5.43;2.27;;;13.70;99.90;;;;;;5024756;28;20185;-67
2022/01/01 12:34:29;;;;;;;6.57;2.20;;;13.60;99.90;;;;;;5024949;28;20240;-66
2022/01/01 12:36:55;;;;;;;7.70;2.57;;;13.60;99.90;;;;;;5026408;28;20216;-65
2022/01/01 12:39:22;;;;;;;4.27;2.13;;;13.70;99.90;;;;;;5026418;28;20194;-66
2022/01/01 12:41:48;;;;;;;8.03;2.23;;;13.70;99.90;;;;;;5027265;28;20246;-66
2022/01/01 12:44:21;;;;;;;5.87;2.30;;;13.70;99.90;;;;;;5026720;28;20180;-66
2022/01/01 12:46:58;;;;;;;4.77;2.20;;;13.70;99.90;;;;;;5027573;28;20176;-66
2022/01/01 12:49:24;;;;;;;7.63;2.50;;;13.70;99.90;;;;;;5026586;28;20633;-65
2022/01/01 12:51:53;;;;;;;5.77;2.23;;;13.70;99.90;;;;;;5023410;28;20199;-77